sensor_id;sensor_type;location;lat;lon;timestamp;P1;durP1;ratioP1;P2;durP2;ratioP2
21148;SDS011;10732;51.472;6.466;2024-03-02T00:02:13;1.92;;;1.67;;
21148;SDS011;10732;51.472;6.466;2024-03-02T00:04:39;2.85;;;1.50;;
21148;SDS011;10732;51.472;6.466;2024-03-02T00:07:05;2.83;;;1.67;;
21148;SDS011;10732;51.472;6.466;2024-03-02T00:09:31;3.00;;;1.63;;
21148;SDS011;10732;51.472;6.466;2024-03-02T00:11:58;1.88;;;1.30;;
21148;SDS011;10732;51.472;6.466;2024-03-02T00:14:25;1.75;;;1.30;;
21148;SDS011;10732;51.472;6.466;2024-03-02T00:16:51;2.35;;;1.52;;
21148;SDS011;10732;51.472;6.466;2024-03-02T00:19:17;1.67;;;1.40;;
21148;SDS011;10732;51.472;6.466;2024-03-02T00:21:43;2.45;;;1.40;;
21148;SDS011;10732;51.472;6.466;2024-03-02T00:24:17;3.55;;;1.38;;
21148;SDS011;10732;51.472;6.466;2024-03-02T00:26:51;2.45;;;1.40;;
21148;SDS011;10732;51.472;6.466;2024-03-02T00:29:17;3.40;;;1.65;;
21148;SDS011;10732;51.472;6.466;2024-03-02T00:31:45;3.33;;;1.45;;
21148;SDS011;10732;51.472;6.466;2024-03-02T00:34:11;2.40;;;1.30;;
21148;SDS011;10732;51.472;6.466;2024-03-02T00:36:38;2.10;;;1.50;;
21148;SDS011;10732;51.472;6.466;2024-03-02T00:39:04;3.10;;;1.50;;
21148;SDS011;10732;51.472;6.466;2024-03-02T00:41:32;2.20;;;1.33;;
21148;SDS011;10732;51.472;6.466;2024-03-02T00:46:26;2.55;;;1.33;;
21148;SDS011;10732;51.472;6.466;2024-03-02T00:48:57;2.15;;;1.23;;
21148;SDS011;10732;51.472;6.466;2024-03-02T00:51:25;2.72;;;1.65;;
21148;SDS011;10732;51.472;6.466;2024-03-02T00:54:01;3.30;;;1.35;;
21148;SDS011;10732;51.472;6.466;2024-03-02T00:56:29;2.95;;;1.40;;
21148;SDS011;10732;51.472;6.466;2024-03-02T00:58:55;3.28;;;1.35;;
21148;SDS011;10732;51.472;6.466;2024-03-02T01:01:21;2.78;;;1.40;;
21148;SDS011;10732;51.472;6.466;2024-03-02T01:03:47;2.88;;;1.60;;
21148;SDS011;10732;51.472;6.466;2024-03-02T01:06:14;2.70;;;1.60;;
21148;SDS011;10732;51.472;6.466;2024-03-02T01:08:40;1.77;;;1.30;;
21148;SDS011;10732;51.472;6.466;2024-03-02T01:11:05;3.15;;;1.35;;
21148;SDS011;10732;51.472;6.466;2024-03-02T01:13:31;3.78;;;1.70;;
21148;SDS011;10732;51.472;6.466;2024-03-02T01:15:57;1.90;;;1.40;;
21148;SDS011;10732;51.472;6.466;2024-03-02T01:18:23;3.60;;;1.52;;
21148;SDS011;10732;51.472;6.466;2024-03-02T01:20:49;1.90;;;1.35;;
21148;SDS011;10732;51.472;6.466;2024-03-02T01:23:17;3.35;;;1.63;;
21148;SDS011;10732;51.472;6.466;2024-03-02T01:25:44;3.97;;;1.83;;
21148;SDS011;10732;51.472;6.466;2024-03-02T01:28:11;3.15;;;1.67;;
21148;SDS011;10732;51.472;6.466;2024-03-02T01:30:37;1.70;;;1.40;;
21148;SDS011;10732;51.472;6.466;2024-03-02T01:33:02;2.90;;;1.48;;
21148;SDS011;10732;51.472;6.466;2024-03-02T01:35:30;3.75;;;1.60;;
21148;SDS011;10732;51.472;6.466;2024-03-02T01:37:59;1.92;;;1.25;;
21148;SDS011;10732;51.472;6.466;2024-03-02T01:40:25;1.50;;;1.20;;
21148;SDS011;10732;51.472;6.466;2024-03-02T01:42:52;1.90;;;1.52;;
21148;SDS011;10732;51.472;6.466;2024-03-02T01:45:19;2.35;;;1.60;;
21148;SDS011;10732;51.472;6.466;2024-03-02T01:47:45;3.22;;;1.52;;
21148;SDS011;10732;51.472;6.466;2024-03-02T01:50:11;3.63;;;1.65;;
21148;SDS011;10732;51.472;6.466;2024-03-02T01:52:37;2.45;;;1.60;;
21148;SDS011;10732;51.472;6.466;2024-03-02T01:55:03;2.95;;;1.58;;
21148;SDS011;10732;51.472;6.466;2024-03-02T01:57:29;2.58;;;1.55;;
21148;SDS011;10732;51.472;6.466;2024-03-02T01:59:55;3.15;;;1.70;;
21148;SDS011;10732;51.472;6.466;2024-03-02T02:02:21;4.10;;;1.70;;
21148;SDS011;10732;51.472;6.466;2024-03-02T02:04:47;2.33;;;1.40;;
21148;SDS011;10732;51.472;6.466;2024-03-02T02:07:12;2.55;;;1.55;;
21148;SDS011;10732;51.472;6.466;2024-03-02T02:09:39;4.28;;;1.88;;
21148;SDS011;10732;51.472;6.466;2024-03-02T02:12:07;2.47;;;1.60;;
21148;SDS011;10732;51.472;6.466;2024-03-02T02:14:33;3.17;;;1.40;;
21148;SDS011;10732;51.472;6.466;2024-03-02T02:16:59;2.60;;;1.83;;
21148;SDS011;10732;51.472;6.466;2024-03-02T02:19:24;4.97;;;1.70;;
21148;SDS011;10732;51.472;6.466;2024-03-02T02:21:50;3.40;;;1.70;;
21148;SDS011;10732;51.472;6.466;2024-03-02T02:24:15;2.10;;;1.48;;
21148;SDS011;10732;51.472;6.466;2024-03-02T02:26:41;2.38;;;1.50;;
21148;SDS011;10732;51.472;6.466;2024-03-02T02:29:07;2.38;;;1.60;;
21148;SDS011;10732;51.472;6.466;2024-03-02T02:31:39;3.25;;;1.55;;
21148;SDS011;10732;51.472;6.466;2024-03-02T02:34:05;2.22;;;1.40;;
21148;SDS011;10732;51.472;6.466;2024-03-02T02:36:31;1.75;;;1.40;;
21148;SDS011;10732;51.472;6.466;2024-03-02T02:39:03;2.97;;;1.40;;
21148;SDS011;10732;51.472;6.466;2024-03-02T02:41:30;2.47;;;1.38;;
21148;SDS011;10732;51.472;6.466;2024-03-02T02:43:55;3.95;;;1.40;;
21148;SDS011;10732;51.472;6.466;2024-03-02T02:46:21;3.72;;;1.10;;
21148;SDS011;10732;51.472;6.466;2024-03-02T02:48:47;2.00;;;1.25;;
21148;SDS011;10732;51.472;6.466;2024-03-02T02:51:13;5.10;;;1.23;;
21148;SDS011;10732;51.472;6.466;2024-03-02T02:53:38;2.80;;;1.00;;
21148;SDS011;10732;51.472;6.466;2024-03-02T02:56:07;1.85;;;0.90;;
21148;SDS011;10732;51.472;6.466;2024-03-02T02:58:32;2.17;;;1.02;;
21148;SDS011;10732;51.472;6.466;2024-03-02T03:00:58;3.25;;;1.10;;
21148;SDS011;10732;51.472;6.466;2024-03-02T03:03:23;1.52;;;1.08;;
21148;SDS011;10732;51.472;6.466;2024-03-02T03:05:49;1.38;;;1.00;;
21148;SDS011;10732;51.472;6.466;2024-03-02T03:08:15;1.23;;;0.85;;
21148;SDS011;10732;51.472;6.466;2024-03-02T03:10:43;5.07;;;1.02;;
21148;SDS011;10732;51.472;6.466;2024-03-02T03:13:09;1.10;;;0.80;;
21148;SDS011;10732;51.472;6.466;2024-03-02T03:15:35;0.98;;;0.60;;
21148;SDS011;10732;51.472;6.466;2024-03-02T03:18:04;3.08;;;0.85;;
21148;SDS011;10732;51.472;6.466;2024-03-02T03:20:30;0.70;;;0.70;;
21148;SDS011;10732;51.472;6.466;2024-03-02T03:22:56;1.65;;;0.90;;
21148;SDS011;10732;51.472;6.466;2024-03-02T03:25:22;2.03;;;0.63;;
21148;SDS011;10732;51.472;6.466;2024-03-02T03:27:47;2.85;;;0.75;;
21148;SDS011;10732;51.472;6.466;2024-03-02T03:30:13;1.35;;;0.70;;
21148;SDS011;10732;51.472;6.466;2024-03-02T03:32:39;1.95;;;0.75;;
21148;SDS011;10732;51.472;6.466;2024-03-02T03:35:05;2.00;;;0.70;;
21148;SDS011;10732;51.472;6.466;2024-03-02T03:37:31;1.02;;;0.57;;
21148;SDS011;10732;51.472;6.466;2024-03-02T03:40:00;0.85;;;0.52;;
21148;SDS011;10732;51.472;6.466;2024-03-02T03:42:26;0.73;;;0.40;;
21148;SDS011;10732;51.472;6.466;2024-03-02T03:44:52;0.85;;;0.50;;
21148;SDS011;10732;51.472;6.466;2024-03-02T03:47:17;0.88;;;0.70;;
21148;SDS011;10732;51.472;6.466;2024-03-02T03:49:43;1.67;;;0.60;;
21148;SDS011;10732;51.472;6.466;2024-03-02T03:52:09;1.02;;;0.60;;
21148;SDS011;10732;51.472;6.466;2024-03-02T03:54:34;1.27;;;0.60;;
21148;SDS011;10732;51.472;6.466;2024-03-02T03:57:02;1.48;;;0.50;;
21148;SDS011;10732;51.472;6.466;2024-03-02T03:59:27;0.65;;;0.50;;
21148;SDS011;10732;51.472;6.466;2024-03-02T04:01:53;1.58;;;0.60;;
21148;SDS011;10732;51.472;6.466;2024-03-02T04:04:19;0.93;;;0.50;;
21148;SDS011;10732;51.472;6.466;2024-03-02T04:06:44;3.15;;;0.70;;
21148;SDS011;10732;51.472;6.466;2024-03-02T04:09:10;0.73;;;0.50;;
21148;SDS011;10732;51.472;6.466;2024-03-02T04:11:35;0.73;;;0.60;;
21148;SDS011;10732;51.472;6.466;2024-03-02T04:14:01;0.60;;;0.60;;
21148;SDS011;10732;51.472;6.466;2024-03-02T04:16:27;1.80;;;0.50;;
21148;SDS011;10732;51.472;6.466;2024-03-02T04:18:53;0.55;;;0.50;;
21148;SDS011;10732;51.472;6.466;2024-03-02T04:21:19;1.25;;;0.50;;
21148;SDS011;10732;51.472;6.466;2024-03-02T04:23:45;0.70;;;0.43;;
21148;SDS011;10732;51.472;6.466;2024-03-02T04:26:10;0.47;;;0.47;;
21148;SDS011;10732;51.472;6.466;2024-03-02T04:28:36;0.47;;;0.45;;
21148;SDS011;10732;51.472;6.466;2024-03-02T04:31:01;0.50;;;0.47;;
21148;SDS011;10732;51.472;6.466;2024-03-02T04:33:27;1.95;;;0.70;;
21148;SDS011;10732;51.472;6.466;2024-03-02T04:35:53;0.40;;;0.40;;
21148;SDS011;10732;51.472;6.466;2024-03-02T04:38:18;0.95;;;0.50;;
21148;SDS011;10732;51.472;6.466;2024-03-02T04:40:44;0.93;;;0.50;;
21148;SDS011;10732;51.472;6.466;2024-03-02T04:43:09;1.13;;;0.60;;
21148;SDS011;10732;51.472;6.466;2024-03-02T04:45:37;0.80;;;0.50;;
21148;SDS011;10732;51.472;6.466;2024-03-02T04:48:03;0.60;;;0.50;;
21148;SDS011;10732;51.472;6.466;2024-03-02T04:50:29;0.63;;;0.43;;
21148;SDS011;10732;51.472;6.466;2024-03-02T04:52:55;0.57;;;0.57;;
21148;SDS011;10732;51.472;6.466;2024-03-02T04:55:20;1.17;;;0.43;;
21148;SDS011;10732;51.472;6.466;2024-03-02T04:57:52;0.68;;;0.60;;
21148;SDS011;10732;51.472;6.466;2024-03-02T05:00:19;0.70;;;0.40;;
21148;SDS011;10732;51.472;6.466;2024-03-02T05:02:45;1.63;;;0.63;;
21148;SDS011;10732;51.472;6.466;2024-03-02T05:05:11;1.45;;;0.70;;
21148;SDS011;10732;51.472;6.466;2024-03-02T05:07:37;1.95;;;0.77;;
21148;SDS011;10732;51.472;6.466;2024-03-02T05:10:02;1.25;;;0.65;;
21148;SDS011;10732;51.472;6.466;2024-03-02T05:12:28;1.63;;;0.70;;
21148;SDS011;10732;51.472;6.466;2024-03-02T05:15:06;2.45;;;0.80;;
21148;SDS011;10732;51.472;6.466;2024-03-02T05:17:35;1.98;;;0.68;;
21148;SDS011;10732;51.472;6.466;2024-03-02T05:20:01;0.80;;;0.70;;
21148;SDS011;10732;51.472;6.466;2024-03-02T05:22:28;3.65;;;0.80;;
21148;SDS011;10732;51.472;6.466;2024-03-02T05:24:54;1.27;;;0.57;;
21148;SDS011;10732;51.472;6.466;2024-03-02T05:27:19;1.25;;;0.75;;
21148;SDS011;10732;51.472;6.466;2024-03-02T05:29:45;1.00;;;0.80;;
21148;SDS011;10732;51.472;6.466;2024-03-02T05:32:12;3.47;;;1.02;;
21148;SDS011;10732;51.472;6.466;2024-03-02T05:34:37;3.45;;;1.33;;
21148;SDS011;10732;51.472;6.466;2024-03-02T05:37:03;2.17;;;1.98;;
21148;SDS011;10732;51.472;6.466;2024-03-02T05:39:28;1.75;;;1.40;;
21148;SDS011;10732;51.472;6.466;2024-03-02T05:41:54;1.95;;;1.33;;
21148;SDS011;10732;51.472;6.466;2024-03-02T05:44:20;1.40;;;0.90;;
21148;SDS011;10732;51.472;6.466;2024-03-02T05:46:45;3.30;;;1.40;;
21148;SDS011;10732;51.472;6.466;2024-03-02T05:49:11;1.23;;;1.02;;
21148;SDS011;10732;51.472;6.466;2024-03-02T05:51:37;1.65;;;1.30;;
21148;SDS011;10732;51.472;6.466;2024-03-02T05:54:02;2.00;;;1.15;;
21148;SDS011;10732;51.472;6.466;2024-03-02T05:56:28;2.15;;;1.48;;
21148;SDS011;10732;51.472;6.466;2024-03-02T05:58:54;1.58;;;1.10;;
21148;SDS011;10732;51.472;6.466;2024-03-02T06:01:44;1.95;;;1.10;;
21148;SDS011;10732;51.472;6.466;2024-03-02T06:04:16;1.20;;;1.10;;
21148;SDS011;10732;51.472;6.466;2024-03-02T06:06:42;1.55;;;1.10;;
21148;SDS011;10732;51.472;6.466;2024-03-02T06:09:08;1.27;;;1.00;;
21148;SDS011;10732;51.472;6.466;2024-03-02T06:11:37;2.55;;;1.20;;
21148;SDS011;10732;51.472;6.466;2024-03-02T06:14:04;4.43;;;3.03;;
21148;SDS011;10732;51.472;6.466;2024-03-02T06:16:31;5.88;;;2.72;;
21148;SDS011;10732;51.472;6.466;2024-03-02T06:18:57;4.97;;;2.28;;
21148;SDS011;10732;51.472;6.466;2024-03-02T06:21:23;2.92;;;2.08;;
21148;SDS011;10732;51.472;6.466;2024-03-02T06:23:49;3.55;;;1.90;;
21148;SDS011;10732;51.472;6.466;2024-03-02T06:26:15;7.18;;;2.20;;
21148;SDS011;10732;51.472;6.466;2024-03-02T06:28:40;3.35;;;2.20;;
21148;SDS011;10732;51.472;6.466;2024-03-02T06:31:06;4.18;;;2.55;;
21148;SDS011;10732;51.472;6.466;2024-03-02T06:33:32;4.28;;;2.70;;
21148;SDS011;10732;51.472;6.466;2024-03-02T06:35:57;3.40;;;2.50;;
21148;SDS011;10732;51.472;6.466;2024-03-02T06:38:23;3.72;;;2.80;;
21148;SDS011;10732;51.472;6.466;2024-03-02T06:40:49;5.50;;;2.78;;
21148;SDS011;10732;51.472;6.466;2024-03-02T06:43:14;5.50;;;3.03;;
21148;SDS011;10732;51.472;6.466;2024-03-02T06:45:40;4.03;;;2.50;;
21148;SDS011;10732;51.472;6.466;2024-03-02T06:48:06;4.40;;;3.00;;
21148;SDS011;10732;51.472;6.466;2024-03-02T06:50:32;4.00;;;3.20;;
21148;SDS011;10732;51.472;6.466;2024-03-02T06:52:58;4.25;;;3.10;;
21148;SDS011;10732;51.472;6.466;2024-03-02T06:55:23;5.68;;;2.90;;
21148;SDS011;10732;51.472;6.466;2024-03-02T06:57:52;3.95;;;2.92;;
21148;SDS011;10732;51.472;6.466;2024-03-02T07:00:18;5.25;;;3.17;;
21148;SDS011;10732;51.472;6.466;2024-03-02T07:02:45;4.22;;;3.00;;
21148;SDS011;10732;51.472;6.466;2024-03-02T07:05:11;5.60;;;2.75;;
21148;SDS011;10732;51.472;6.466;2024-03-02T07:07:37;3.22;;;2.22;;
21148;SDS011;10732;51.472;6.466;2024-03-02T07:10:03;3.10;;;2.38;;
21148;SDS011;10732;51.472;6.466;2024-03-02T07:12:30;4.57;;;2.65;;
21148;SDS011;10732;51.472;6.466;2024-03-02T07:14:56;3.25;;;2.50;;
21148;SDS011;10732;51.472;6.466;2024-03-02T07:17:36;3.42;;;2.92;;
21148;SDS011;10732;51.472;6.466;2024-03-02T07:20:02;2.97;;;2.42;;
21148;SDS011;10732;51.472;6.466;2024-03-02T07:22:29;4.00;;;2.70;;
21148;SDS011;10732;51.472;6.466;2024-03-02T07:24:55;5.40;;;2.78;;
21148;SDS011;10732;51.472;6.466;2024-03-02T07:27:20;5.95;;;2.58;;
21148;SDS011;10732;51.472;6.466;2024-03-02T07:29:46;8.65;;;3.78;;
21148;SDS011;10732;51.472;6.466;2024-03-02T07:32:12;3.47;;;2.08;;
21148;SDS011;10732;51.472;6.466;2024-03-02T07:34:37;4.50;;;2.20;;
21148;SDS011;10732;51.472;6.466;2024-03-02T07:37:03;3.13;;;2.17;;
21148;SDS011;10732;51.472;6.466;2024-03-02T07:39:29;5.57;;;2.58;;
21148;SDS011;10732;51.472;6.466;2024-03-02T07:41:55;3.28;;;2.70;;
21148;SDS011;10732;51.472;6.466;2024-03-02T07:44:21;4.35;;;2.40;;
21148;SDS011;10732;51.472;6.466;2024-03-02T07:46:47;5.70;;;2.47;;
21148;SDS011;10732;51.472;6.466;2024-03-02T07:49:14;4.63;;;2.40;;
21148;SDS011;10732;51.472;6.466;2024-03-02T07:51:40;4.40;;;1.85;;
21148;SDS011;10732;51.472;6.466;2024-03-02T07:54:06;6.53;;;2.05;;
21148;SDS011;10732;51.472;6.466;2024-03-02T07:56:31;4.50;;;2.15;;
21148;SDS011;10732;51.472;6.466;2024-03-02T07:58:57;4.53;;;2.17;;
21148;SDS011;10732;51.472;6.466;2024-03-02T08:01:26;4.70;;;2.10;;
21148;SDS011;10732;51.472;6.466;2024-03-02T08:03:58;6.85;;;2.22;;
21148;SDS011;10732;51.472;6.466;2024-03-02T08:06:30;5.18;;;2.20;;
21148;SDS011;10732;51.472;6.466;2024-03-02T08:08:56;2.97;;;2.00;;
21148;SDS011;10732;51.472;6.466;2024-03-02T08:11:23;3.00;;;1.70;;
21148;SDS011;10732;51.472;6.466;2024-03-02T08:13:49;4.68;;;1.92;;
21148;SDS011;10732;51.472;6.466;2024-03-02T08:16:15;3.08;;;1.83;;
21148;SDS011;10732;51.472;6.466;2024-03-02T08:18:41;6.03;;;1.80;;
21148;SDS011;10732;51.472;6.466;2024-03-02T08:21:07;2.25;;;1.50;;
21148;SDS011;10732;51.472;6.466;2024-03-02T08:23:33;3.00;;;1.70;;
21148;SDS011;10732;51.472;6.466;2024-03-02T08:25:59;2.33;;;1.40;;
21148;SDS011;10732;51.472;6.466;2024-03-02T08:28:25;3.50;;;1.40;;
21148;SDS011;10732;51.472;6.466;2024-03-02T08:30:50;5.20;;;1.50;;
21148;SDS011;10732;51.472;6.466;2024-03-02T08:33:16;2.30;;;1.33;;
21148;SDS011;10732;51.472;6.466;2024-03-02T08:35:41;2.55;;;1.38;;
21148;SDS011;10732;51.472;6.466;2024-03-02T08:38:07;2.70;;;1.33;;
21148;SDS011;10732;51.472;6.466;2024-03-02T08:40:33;2.20;;;1.23;;
21148;SDS011;10732;51.472;6.466;2024-03-02T08:42:58;1.73;;;1.20;;
21148;SDS011;10732;51.472;6.466;2024-03-02T08:45:24;2.33;;;1.30;;
21148;SDS011;10732;51.472;6.466;2024-03-02T08:47:49;3.00;;;1.20;;
21148;SDS011;10732;51.472;6.466;2024-03-02T08:50:15;1.58;;;1.00;;
21148;SDS011;10732;51.472;6.466;2024-03-02T08:52:41;1.40;;;0.93;;
21148;SDS011;10732;51.472;6.466;2024-03-02T08:55:07;2.10;;;1.20;;
21148;SDS011;10732;51.472;6.466;2024-03-02T08:57:33;1.58;;;1.20;;
21148;SDS011;10732;51.472;6.466;2024-03-02T08:59:59;1.73;;;1.30;;
21148;SDS011;10732;51.472;6.466;2024-03-02T09:02:25;3.03;;;1.40;;
21148;SDS011;10732;51.472;6.466;2024-03-02T09:04:52;1.73;;;1.15;;
21148;SDS011;10732;51.472;6.466;2024-03-02T09:07:18;2.25;;;1.10;;
21148;SDS011;10732;51.472;6.466;2024-03-02T09:09:43;1.55;;;1.00;;
21148;SDS011;10732;51.472;6.466;2024-03-02T09:12:09;2.10;;;1.20;;
21148;SDS011;10732;51.472;6.466;2024-03-02T09:14:35;3.35;;;1.17;;
21148;SDS011;10732;51.472;6.466;2024-03-02T09:17:02;2.50;;;1.10;;
21148;SDS011;10732;51.472;6.466;2024-03-02T09:19:28;1.20;;;0.90;;
21148;SDS011;10732;51.472;6.466;2024-03-02T09:21:54;2.20;;;1.15;;
21148;SDS011;10732;51.472;6.466;2024-03-02T09:24:21;2.05;;;1.10;;
21148;SDS011;10732;51.472;6.466;2024-03-02T09:26:46;3.28;;;1.30;;
21148;SDS011;10732;51.472;6.466;2024-03-02T09:29:12;2.00;;;1.05;;
21148;SDS011;10732;51.472;6.466;2024-03-02T09:31:41;1.25;;;1.13;;
21148;SDS011;10732;51.472;6.466;2024-03-02T09:34:07;1.38;;;0.98;;
21148;SDS011;10732;51.472;6.466;2024-03-02T09:36:33;1.85;;;1.10;;
21148;SDS011;10732;51.472;6.466;2024-03-02T09:38:59;3.03;;;1.20;;
21148;SDS011;10732;51.472;6.466;2024-03-02T09:41:25;1.17;;;1.00;;
21148;SDS011;10732;51.472;6.466;2024-03-02T09:43:51;1.40;;;1.10;;
21148;SDS011;10732;51.472;6.466;2024-03-02T09:46:16;2.03;;;1.00;;
21148;SDS011;10732;51.472;6.466;2024-03-02T09:48:44;4.38;;;1.30;;
21148;SDS011;10732;51.472;6.466;2024-03-02T09:51:10;3.05;;;1.23;;
21148;SDS011;10732;51.472;6.466;2024-03-02T09:53:36;2.00;;;1.00;;
21148;SDS011;10732;51.472;6.466;2024-03-02T09:56:02;2.97;;;1.20;;
21148;SDS011;10732;51.472;6.466;2024-03-02T09:58:29;2.65;;;1.33;;
21148;SDS011;10732;51.472;6.466;2024-03-02T10:00:55;2.47;;;1.35;;
21148;SDS011;10732;51.472;6.466;2024-03-02T10:03:22;1.88;;;1.05;;
21148;SDS011;10732;51.472;6.466;2024-03-02T10:05:49;1.42;;;1.00;;
21148;SDS011;10732;51.472;6.466;2024-03-02T10:08:15;3.20;;;1.20;;
21148;SDS011;10732;51.472;6.466;2024-03-02T10:10:41;2.72;;;1.40;;
21148;SDS011;10732;51.472;6.466;2024-03-02T10:13:10;2.92;;;1.35;;
21148;SDS011;10732;51.472;6.466;2024-03-02T10:15:37;1.33;;;1.20;;
21148;SDS011;10732;51.472;6.466;2024-03-02T10:18:06;3.25;;;1.42;;
21148;SDS011;10732;51.472;6.466;2024-03-02T10:20:37;2.85;;;1.17;;
21148;SDS011;10732;51.472;6.466;2024-03-02T10:23:10;2.38;;;1.10;;
21148;SDS011;10732;51.472;6.466;2024-03-02T10:25:40;1.27;;;1.10;;
21148;SDS011;10732;51.472;6.466;2024-03-02T10:28:06;2.15;;;1.10;;
21148;SDS011;10732;51.472;6.466;2024-03-02T10:30:32;1.85;;;1.10;;
21148;SDS011;10732;51.472;6.466;2024-03-02T10:32:58;3.25;;;1.10;;
21148;SDS011;10732;51.472;6.466;2024-03-02T10:35:28;1.42;;;1.20;;
21148;SDS011;10732;51.472;6.466;2024-03-02T10:37:56;3.40;;;1.10;;
21148;SDS011;10732;51.472;6.466;2024-03-02T10:40:24;2.65;;;1.30;;
21148;SDS011;10732;51.472;6.466;2024-03-02T10:42:51;2.97;;;1.10;;
21148;SDS011;10732;51.472;6.466;2024-03-02T10:45:17;2.00;;;1.00;;
21148;SDS011;10732;51.472;6.466;2024-03-02T10:47:45;3.15;;;1.23;;
21148;SDS011;10732;51.472;6.466;2024-03-02T10:50:12;5.43;;;1.30;;
21148;SDS011;10732;51.472;6.466;2024-03-02T10:52:38;5.15;;;1.25;;
21148;SDS011;10732;51.472;6.466;2024-03-02T10:55:07;2.92;;;1.02;;
21148;SDS011;10732;51.472;6.466;2024-03-02T10:57:52;2.10;;;0.95;;
21148;SDS011;10732;51.472;6.466;2024-03-02T11:00:19;2.42;;;1.00;;
21148;SDS011;10732;51.472;6.466;2024-03-02T11:02:52;2.78;;;1.10;;
21148;SDS011;10732;51.472;6.466;2024-03-02T11:05:24;2.95;;;1.00;;
21148;SDS011;10732;51.472;6.466;2024-03-02T11:08:02;2.75;;;1.00;;
21148;SDS011;10732;51.472;6.466;2024-03-02T11:10:36;4.38;;;1.20;;
21148;SDS011;10732;51.472;6.466;2024-03-02T11:13:08;1.98;;;0.90;;
21148;SDS011;10732;51.472;6.466;2024-03-02T11:15:35;1.70;;;0.80;;
21148;SDS011;10732;51.472;6.466;2024-03-02T11:18:04;3.88;;;1.10;;
21148;SDS011;10732;51.472;6.466;2024-03-02T11:20:33;3.33;;;1.20;;
21148;SDS011;10732;51.472;6.466;2024-03-02T11:23:05;2.75;;;1.30;;
21148;SDS011;10732;51.472;6.466;2024-03-02T11:25:32;2.88;;;1.00;;
21148;SDS011;10732;51.472;6.466;2024-03-02T11:35:37;2.35;;;1.00;;
21148;SDS011;10732;51.472;6.466;2024-03-02T11:38:03;2.75;;;1.00;;
21148;SDS011;10732;51.472;6.466;2024-03-02T11:40:29;2.25;;;0.90;;
21148;SDS011;10732;51.472;6.466;2024-03-02T11:43:04;1.70;;;0.82;;
21148;SDS011;10732;51.472;6.466;2024-03-02T11:45:31;3.00;;;1.10;;
21148;SDS011;10732;51.472;6.466;2024-03-02T11:47:58;1.92;;;1.05;;
21148;SDS011;10732;51.472;6.466;2024-03-02T11:50:40;3.75;;;1.00;;
21148;SDS011;10732;51.472;6.466;2024-03-02T11:53:06;3.42;;;0.90;;
21148;SDS011;10732;51.472;6.466;2024-03-02T11:55:37;3.75;;;1.00;;
21148;SDS011;10732;51.472;6.466;2024-03-02T11:58:04;2.92;;;1.27;;
21148;SDS011;10732;51.472;6.466;2024-03-02T12:00:31;4.25;;;1.25;;
21148;SDS011;10732;51.472;6.466;2024-03-02T12:03:00;1.92;;;1.00;;
21148;SDS011;10732;51.472;6.466;2024-03-02T12:05:30;3.40;;;1.02;;
21148;SDS011;10732;51.472;6.466;2024-03-02T12:07:57;1.92;;;0.82;;
21148;SDS011;10732;51.472;6.466;2024-03-02T12:10:23;2.53;;;1.10;;
21148;SDS011;10732;51.472;6.466;2024-03-02T12:12:59;1.92;;;0.80;;
21148;SDS011;10732;51.472;6.466;2024-03-02T12:15:26;5.07;;;1.30;;
21148;SDS011;10732;51.472;6.466;2024-03-02T12:17:57;1.48;;;1.00;;
21148;SDS011;10732;51.472;6.466;2024-03-02T12:20:24;3.47;;;1.10;;
21148;SDS011;10732;51.472;6.466;2024-03-02T12:22:51;2.05;;;1.10;;
21148;SDS011;10732;51.472;6.466;2024-03-02T12:25:18;2.80;;;1.10;;
21148;SDS011;10732;51.472;6.466;2024-03-02T12:27:45;2.63;;;1.02;;
21148;SDS011;10732;51.472;6.466;2024-03-02T12:30:12;2.42;;;0.98;;
21148;SDS011;10732;51.472;6.466;2024-03-02T12:32:39;2.72;;;1.20;;
21148;SDS011;10732;51.472;6.466;2024-03-02T12:35:05;4.53;;;1.00;;
21148;SDS011;10732;51.472;6.466;2024-03-02T12:37:31;3.70;;;1.85;;
21148;SDS011;10732;51.472;6.466;2024-03-02T12:39:57;3.47;;;1.40;;
21148;SDS011;10732;51.472;6.466;2024-03-02T12:42:25;1.83;;;1.15;;
21148;SDS011;10732;51.472;6.466;2024-03-02T12:44:52;6.15;;;1.10;;
21148;SDS011;10732;51.472;6.466;2024-03-02T12:47:19;2.03;;;1.00;;
21148;SDS011;10732;51.472;6.466;2024-03-02T12:49:45;2.10;;;0.90;;
21148;SDS011;10732;51.472;6.466;2024-03-02T12:52:12;3.80;;;1.10;;
21148;SDS011;10732;51.472;6.466;2024-03-02T12:54:38;2.90;;;1.00;;
21148;SDS011;10732;51.472;6.466;2024-03-02T12:57:04;2.58;;;0.80;;
21148;SDS011;10732;51.472;6.466;2024-03-02T12:59:29;4.35;;;1.20;;
21148;SDS011;10732;51.472;6.466;2024-03-02T13:01:56;2.63;;;1.13;;
21148;SDS011;10732;51.472;6.466;2024-03-02T13:04:26;2.08;;;1.20;;
21148;SDS011;10732;51.472;6.466;2024-03-02T13:06:53;2.35;;;1.35;;
21148;SDS011;10732;51.472;6.466;2024-03-02T13:09:22;6.18;;;1.40;;
21148;SDS011;10732;51.472;6.466;2024-03-02T13:11:48;3.95;;;1.55;;
21148;SDS011;10732;51.472;6.466;2024-03-02T13:14:14;2.72;;;1.23;;
21148;SDS011;10732;51.472;6.466;2024-03-02T13:16:40;2.65;;;1.40;;
21148;SDS011;10732;51.472;6.466;2024-03-02T13:19:10;2.85;;;1.27;;
21148;SDS011;10732;51.472;6.466;2024-03-02T13:21:36;3.28;;;1.20;;
21148;SDS011;10732;51.472;6.466;2024-03-02T13:24:03;2.17;;;1.23;;
21148;SDS011;10732;51.472;6.466;2024-03-02T13:26:29;5.95;;;1.55;;
21148;SDS011;10732;51.472;6.466;2024-03-02T13:28:55;4.18;;;1.15;;
21148;SDS011;10732;51.472;6.466;2024-03-02T13:31:21;3.03;;;1.20;;
21148;SDS011;10732;51.472;6.466;2024-03-02T13:33:47;2.05;;;1.20;;
21148;SDS011;10732;51.472;6.466;2024-03-02T13:36:13;1.70;;;1.00;;
21148;SDS011;10732;51.472;6.466;2024-03-02T13:38:38;2.05;;;1.10;;
21148;SDS011;10732;51.472;6.466;2024-03-02T13:41:04;1.75;;;1.10;;
21148;SDS011;10732;51.472;6.466;2024-03-02T13:43:30;1.15;;;1.00;;
21148;SDS011;10732;51.472;6.466;2024-03-02T13:46:00;1.17;;;0.90;;
21148;SDS011;10732;51.472;6.466;2024-03-02T13:48:26;5.20;;;1.20;;
21148;SDS011;10732;51.472;6.466;2024-03-02T13:50:52;2.85;;;1.35;;
21148;SDS011;10732;51.472;6.466;2024-03-02T13:53:18;4.90;;;1.42;;
21148;SDS011;10732;51.472;6.466;2024-03-02T13:55:44;2.50;;;1.10;;
21148;SDS011;10732;51.472;6.466;2024-03-02T13:58:10;2.88;;;1.30;;
21148;SDS011;10732;51.472;6.466;2024-03-02T14:00:36;2.45;;;1.48;;
21148;SDS011;10732;51.472;6.466;2024-03-02T14:03:03;1.88;;;1.30;;
21148;SDS011;10732;51.472;6.466;2024-03-02T14:05:31;2.70;;;1.15;;
21148;SDS011;10732;51.472;6.466;2024-03-02T14:07:57;1.90;;;1.20;;
21148;SDS011;10732;51.472;6.466;2024-03-02T14:10:23;3.42;;;1.27;;
21148;SDS011;10732;51.472;6.466;2024-03-02T14:12:49;2.33;;;1.10;;
21148;SDS011;10732;51.472;6.466;2024-03-02T14:15:15;2.17;;;1.38;;
21148;SDS011;10732;51.472;6.466;2024-03-02T14:17:40;2.10;;;1.40;;
21148;SDS011;10732;51.472;6.466;2024-03-02T14:20:07;3.17;;;1.20;;
21148;SDS011;10732;51.472;6.466;2024-03-02T14:22:35;2.22;;;1.48;;
21148;SDS011;10732;51.472;6.466;2024-03-02T14:25:02;3.78;;;1.50;;
21148;SDS011;10732;51.472;6.466;2024-03-02T14:27:28;1.50;;;1.30;;
21148;SDS011;10732;51.472;6.466;2024-03-02T14:29:54;1.63;;;1.35;;
21148;SDS011;10732;51.472;6.466;2024-03-02T14:32:19;3.03;;;1.50;;
21148;SDS011;10732;51.472;6.466;2024-03-02T14:34:45;3.15;;;1.52;;
21148;SDS011;10732;51.472;6.466;2024-03-02T14:37:11;4.40;;;1.50;;
21148;SDS011;10732;51.472;6.466;2024-03-02T14:39:38;2.60;;;1.42;;
21148;SDS011;10732;51.472;6.466;2024-03-02T14:42:04;2.22;;;1.40;;
21148;SDS011;10732;51.472;6.466;2024-03-02T14:44:30;2.17;;;1.30;;
21148;SDS011;10732;51.472;6.466;2024-03-02T14:46:56;2.97;;;1.10;;
21148;SDS011;10732;51.472;6.466;2024-03-02T14:49:23;1.85;;;0.98;;
21148;SDS011;10732;51.472;6.466;2024-03-02T14:51:49;3.30;;;1.10;;
21148;SDS011;10732;51.472;6.466;2024-03-02T14:54:15;3.40;;;1.55;;
21148;SDS011;10732;51.472;6.466;2024-03-02T14:56:41;3.08;;;1.58;;